• Join FlightAware (Why Join?)
  • Login
  • US Flag 
12:22PM EDT


 

Airport Tracker/Info


-or-


 

Live Flight TrackerFlight Track Log ✈ SWA378 ✈ 30-Apr-2013 ✈ KORF - KBWI

Flight Track Log - Related Links

Times and Time Zones

All times are in EDT time to prevent confusion due to time zone crossing. See the SWA378 flight status page for this flight to view local times or setup timezone preferences in your user account.

Time Position Orientation Groundspeed Altitude Reporting Facility
EDT Latitude Longitude Course Direction KTS MPH feet Rate Location/Type
08:15PM 36.9369 -76.1817 13° North 216 249 3,400  Level Washington Center
08:16PM 36.9450 -76.2364 280° West 270 311 5,600 3,600 Climbing Washington Center
08:17PM 36.9611 -76.3275 283° West 276 318 9,600 3,720 Climbing Washington Center
08:18PM 37.0044 -76.4189 301° West 276 318 13,200 3,180 Climbing Washington Center
08:19PM 37.0494 -76.5183 300° West 300 345 16,000 1,380 Climbing Washington Center
08:20PM 37.0947 -76.6125 301° West 312 359 16,000  Level Washington Center
08:21PM 37.1417 -76.7122 301° West 317 365 16,000 -60 Level Washington Center
08:22PM 37.1889 -76.8144 300° West 329 379 15,900  Descending Washington Center
08:23PM 37.2356 -76.9169 300° West 334 384 16,000  Climbing Washington Center
08:24PM 37.2658 -77.0272 289° West 339 390 16,000  Level Washington Center
08:25PM 37.2456 -77.1469 258° West 334 384 16,000  Level Washington Center
08:26PM 37.2231 -77.2611 256° West 339 390 16,000  Level Washington Center
08:27PM 37.2025 -77.3806 258° West 344 396 16,000  Level Washington Center
08:28PM 37.1797 -77.5000 257° West 355 409 16,000  Level Washington Center
08:29PM 37.1592 -77.6219 258° West 355 409 16,000  Level Washington Center
08:30PM 37.1383 -77.7414 258° West 355 409 16,000  Level Washington Center
08:31PM 37.1172 -77.8606 258° West 355 409 16,100  Climbing Washington Center
08:32PM 37.0961 -77.9769 257° West 355 409 16,000 -60 Descending Washington Center
08:33PM 37.1083 -78.0947 277° West 338 389 16,000  Level Washington Center
08:34PM 37.1958 -78.1106 352° North 240 276 16,000  Level Washington Center
08:35PM 37.2786 -78.0403 34° Northeast 251 289 16,000  Level Washington Center
08:36PM 37.3611 -77.9722 33° Northeast 302 348 16,000  Level Washington Center
08:37PM 37.4439 -77.9042 33° Northeast 316 364 16,000  Level Washington Center
08:38PM 37.5222 -77.8411 33° Northeast 329 379 16,100  Climbing Washington Center
08:39PM 37.6028 -77.7728 34° Northeast 335 386 16,000 -60 Descending Washington Center
08:40PM 37.6608 -77.6747 53° Northeast 335 386 16,000  Level Washington Center
08:41PM 37.7208 -77.5767 52° Northeast 345 397 16,000  Level Washington Center
08:42PM 37.7972 -77.5075 36° Northeast 340 391 16,000  Level Washington Center
08:43PM 37.8836 -77.4544 26° Northeast 340 391 16,000  Level Washington Center
08:44PM 37.9697 -77.4014 26° Northeast 334 384 16,000  Level Washington Center
08:45PM 38.0456 -77.3558 25° Northeast 339 390 16,000  Level Washington Center
08:46PM 38.1297 -77.3022 27° Northeast 334 384 16,000  Level Washington Center
08:47PM 38.2161 -77.2486 26° Northeast 334 384 16,000  Level Washington Center
08:48PM 38.2981 -77.1922 28° Northeast 334 384 16,000 -540 Level Washington Center
08:49PM 38.3822 -77.1386 27° Northeast 328 377 15,000 -900 Descending Washington Center
08:50PM 38.4436 -77.0656 43° Northeast 315 362 14,200 -1,560 Descending Washington Center
08:51PM 38.5072 -76.9847 45° Northeast 292 336 12,000 -1,140 Descending Washington Center
08:52PM 38.5664 -76.9167 42° Northeast 281 323 12,000 -480 Level Washington Center
08:53PM 38.6211 -76.8458 45° Northeast 276 318 11,100 -1,140 Descending Washington Center
08:54PM 38.6761 -76.7803 43° Northeast 276 318 9,700 -1,140 Descending Washington Center
08:55PM 38.7500 -76.6500 54° Northeast 255 293 8,300 -1,140 Descending Potomac TRACON
08:56PM 38.7833 -76.5833 57° Northeast 256 295 7,000 -1,260 Descending Potomac TRACON
08:57PM 38.8333 -76.5333 38° Northeast 261 300 6,000 -1,380 Descending Potomac TRACON
08:58PM 38.9000 -76.5667 339° North 268 308 4,200 -1,020 Descending Potomac TRACON
08:59PM 38.9667 -76.5833 349° North 258 297 4,000 -120 Descending Potomac TRACON
09:00PM 39.0000 -76.6667 297° West 269 310 4,000  Level Potomac TRACON
09:01PM 39.0500 -76.7500 308° West 270 311 4,000 -120 Level Potomac TRACON
09:02PM 39.0833 -76.8333 297° West 257 296 3,800 -600 Descending Potomac TRACON
09:03PM 39.1000 -76.9167 284° West 239 275 2,800 -900 Descending Potomac TRACON
09:04PM 39.1500 -76.9167 360° North 187 215 2,100 -420 Descending Potomac TRACON
09:05PM 39.1833 -76.8833 38° Northeast 175 201 2,000 -60 Descending Potomac TRACON
09:06PM 39.1833 -76.8333 90° East 157 181 2,000 -240 Level Potomac TRACON
09:07PM 39.1833 -76.7833 90° East 152 175 1,600 -600 Descending Potomac TRACON
09:08PM 39.1833 -76.7333 90° East 112 129 900 -600 Descending Potomac TRACON
09:09PM 39.1833 -76.7000 90° East 115 132 400 -600 Descending Potomac TRACON
09:11PM 39.1667 -76.6667 85° East  Level FlightAware Approximate